Terminal Aerodrome Forecast
Issued by NWS

Home | Current Version | Previous Version | Graphics & Text | Print | Product List | Glossary On
Versions: 1 2 3 4 5 6 7 8 9 10 11 12 13 14 15 16
000
FTUS43 KMPX 191100
TAFRNH
TAF
KRNH 191121Z 1912/2012 17004KT P6SM -SN BKN015 OVC030
      TEMPO 1912/1916 4SM -SN OVC015
     FM191600 16005KT P6SM OVC015=

USA.gov is the U.S. government's official web portal to all federal, state and local government web resources and services.